Terminal Aerodrome Forecast
Issued by NWS Fort Wayne, IN

Home | Current Version | Previous Version | Text Only | Print | Product List | Glossary Off
Versions: 1 2 3 4 5 6 7 8 9 10 11 12 13

000
FTUS43 KIWX 232300 RRA
TAFFWA
TAF
KFWA 232339Z 2400/2424 31010KT P6SM FEW060
     FM240100 24003KT P6SM SKC
     FM241500 28006KT P6SM SCT150
     FM242300 08005KT P6SM OVC060=

USA.gov is the U.S. government's official web portal to all federal, state and local government web resources and services.